Terminal Aerodrome Forecast
Issued by NWS

Home | Current Version | Previous Version | Text Only | Print | Product List | Glossary Off
Versions: 1 2 3 4 5 6 7 8 9 10 11 12 13 14 15 16 17 18 19 20 21 22 23 24 25

000
FTUS43 KGRB 260759 AAA
TAFRHI
TAF AMD
KRHI 260759Z 2608/2706 03006KT 6SM -SHRA BR SCT004 OVC020
      TEMPO 2608/2612 3SM SHRA BR OVC004
     FM261200 07007KT 5SM SHRA BR OVC015
     FM261400 15009KT 4SM SHRA BR OVC007
     FM261700 23008KT 4SM SHRA OVC015
     FM262100 27008KT P6SM VCSH OVC015
     FM270100 35009KT P6SM OVC015=

USA.gov is the U.S. government's official web portal to all federal, state and local government web resources and services.